createdAt,value
2018-07-14T00:00:46.136Z,18.9
2018-07-14T00:01:46.161Z,18.92
2018-07-14T00:02:46.195Z,18.88
2018-07-14T00:04:00.866Z,18.92
2018-07-14T00:04:46.231Z,18.92
2018-07-14T00:05:46.257Z,18.88
2018-07-14T00:06:46.277Z,18.87
2018-07-14T00:07:46.046Z,18.9
2018-07-14T00:08:46.328Z,18.91
2018-07-14T00:09:46.353Z,18.88
2018-07-14T00:10:46.116Z,18.85
2018-07-14T00:12:00.803Z,18.95
2018-07-14T00:12:46.163Z,18.91
2018-07-14T00:14:00.852Z,18.88
2018-07-14T00:14:46.216Z,18.88
2018-07-14T00:15:46.236Z,18.9
2018-07-14T00:16:46.258Z,18.92
2018-07-14T00:17:46.284Z,18.91
2018-07-14T00:18:46.572Z,18.92
2018-07-14T00:20:01.250Z,18.88
2018-07-14T00:20:46.353Z,18.82
2018-07-14T00:21:46.635Z,18.82
2018-07-14T00:22:46.659Z,18.75
2018-07-14T00:23:46.427Z,18.75
2018-07-14T00:24:46.453Z,18.73
2018-07-14T00:25:46.734Z,18.7
2018-07-14T00:26:46.755Z,18.73
2018-07-14T00:27:46.522Z,18.82
2018-07-14T00:29:01.465Z,18.75
2018-07-14T00:29:46.568Z,18.75
2018-07-14T00:30:46.857Z,18.8
2018-07-14T00:31:46.618Z,18.78
2018-07-14T00:32:46.899Z,18.75
2018-07-14T00:33:46.666Z,18.85
2018-07-14T00:36:46.741Z,18.82
2018-07-14T00:37:46.504Z,18.87
2018-07-14T00:38:47.042Z,18.88
2018-07-14T00:39:47.067Z,18.88
2018-07-14T00:41:01.754Z,18.88
2018-07-14T00:41:47.116Z,18.91
2018-07-14T00:42:47.143Z,18.91
2018-07-14T00:43:47.162Z,18.91
2018-07-14T00:44:47.288Z,18.91
2018-07-14T00:45:47.208Z,18.88
2018-07-14T00:46:47.234Z,19.06
2018-07-14T00:48:47.073Z,19.06
2018-07-14T00:49:47.056Z,19.07
2018-07-14T00:50:47.333Z,19.06
2018-07-14T00:51:47.353Z,19.06
2018-07-14T00:52:47.380Z,19.07
2018-07-14T00:53:47.398Z,19.02
2018-07-14T00:54:47.430Z,19.02
2018-07-14T00:55:47.191Z,19.04
2018-07-14T00:56:47.471Z,19.06
2018-07-14T00:57:47.496Z,18.99
2018-07-14T00:58:47.519Z,19.07
2018-07-14T00:59:47.545Z,19
2018-07-14T01:01:01.973Z,19
2018-07-14T01:01:47.594Z,19
2018-07-14T01:03:02.279Z,19.04
2018-07-14T01:03:47.641Z,19.11
2018-07-14T01:04:47.663Z,19.07
2018-07-14T01:05:47.175Z,19.02
2018-07-14T01:07:02.373Z,19.06
2018-07-14T01:08:47.501Z,19.04
2018-07-14T01:10:47.549Z,19.04
2018-07-14T01:11:47.828Z,18.92
2018-07-14T01:13:02.519Z,18.92
2018-07-14T01:13:47.881Z,18.92
2018-07-14T01:14:47.902Z,18.95
2018-07-14T01:15:47.927Z,18.87
2018-07-14T01:16:47.691Z,18.91
2018-07-14T01:17:48.229Z,18.92
2018-07-14T01:18:47.998Z,18.88
2018-07-14T01:19:48.021Z,18.92
2018-07-14T01:20:48.063Z,18.81
2018-07-14T01:21:48.068Z,18.81
2018-07-14T01:23:02.753Z,18.82
2018-07-14T01:23:48.120Z,18.8
2018-07-14T01:24:48.142Z,18.75
2018-07-14T01:25:48.171Z,18.81
2018-07-14T01:27:48.209Z,18.75
2018-07-14T01:29:02.899Z,18.82
2018-07-14T01:29:48.002Z,18.72
2018-07-14T01:30:48.286Z,18.65
2018-07-14T01:31:48.303Z,18.75
2018-07-14T01:33:02.734Z,18.75
2018-07-14T01:33:48.354Z,18.72
2018-07-14T01:34:48.379Z,18.7
2018-07-14T01:35:48.403Z,18.76
2018-07-14T01:36:48.171Z,18.81
2018-07-14T01:37:48.190Z,18.7
2018-07-14T01:39:03.143Z,18.75
2018-07-14T01:39:48.239Z,18.7
2018-07-14T01:40:48.655Z,18.69
2018-07-14T01:41:48.545Z,18.72
2018-07-14T01:43:48.602Z,18.72
2018-07-14T01:45:03.280Z,18.72
2018-07-14T01:45:48.640Z,18.63
2018-07-14T01:46:48.666Z,18.76
2018-07-14T01:47:48.430Z,18.6
2018-07-14T01:48:48.710Z,18.6
2018-07-14T01:49:48.739Z,18.69
2018-07-14T01:50:48.500Z,18.65
2018-07-14T01:51:48.787Z,18.62
2018-07-14T01:52:48.805Z,18.58
2018-07-14T01:53:48.829Z,18.57
2018-07-14T01:55:48.885Z,18.55
2018-07-14T01:56:48.902Z,18.57
2018-07-14T01:57:48.926Z,18.51
2018-07-14T01:58:48.951Z,18.47
2018-07-14T01:59:48.973Z,18.58
2018-07-14T02:01:03.661Z,18.51
2018-07-14T02:01:49.022Z,18.55
2018-07-14T02:02:49.041Z,18.48
2018-07-14T02:03:49.070Z,18.5
2018-07-14T02:04:48.832Z,18.51
2018-07-14T02:05:49.120Z,18.41
2018-07-14T02:06:49.136Z,18.48
2018-07-14T02:07:49.160Z,18.48
2018-07-14T02:08:49.187Z,18.51
2018-07-14T02:10:03.876Z,18.36
2018-07-14T02:10:49.231Z,18.41
2018-07-14T02:11:49.004Z,18.44
2018-07-14T02:12:49.285Z,18.39
2018-07-14T02:13:49.308Z,18.37
2018-07-14T02:14:49.326Z,18.45
2018-07-14T02:15:49.355Z,18.44
2018-07-14T02:16:49.373Z,18.45
2018-07-14T02:17:49.140Z,18.39
2018-07-14T02:18:49.165Z,18.39
2018-07-14T02:19:49.446Z,18.33
2018-07-14T02:20:48.955Z,18.29
2018-07-14T02:21:48.980Z,18.32
2018-07-14T02:22:49.519Z,18.41
2018-07-14T02:23:49.546Z,18.29
2018-07-14T02:24:49.569Z,18.27
2018-07-14T02:25:49.589Z,18.33
2018-07-14T02:26:49.612Z,18.32
2018-07-14T02:27:49.637Z,18.29
2018-07-14T02:28:49.659Z,18.25
2018-07-14T02:29:49.434Z,18.27
2018-07-14T02:30:49.451Z,18.21
2018-07-14T02:31:49.737Z,18.18
2018-07-14T02:32:49.496Z,18.27
2018-07-14T02:33:49.777Z,18.15
2018-07-14T02:34:49.808Z,18.12
2018-07-14T02:36:04.229Z,18.12
2018-07-14T02:36:49.860Z,18.11
2018-07-14T02:37:49.884Z,18.11
2018-07-14T02:38:49.905Z,18.11
2018-07-14T02:39:49.925Z,18.08
2018-07-14T02:40:49.963Z,18.07
2018-07-14T02:42:04.370Z,17.99
2018-07-14T02:42:50.000Z,17.97
2018-07-14T02:43:50.015Z,17.96
2018-07-14T02:44:50.046Z,18.03
2018-07-14T02:45:50.069Z,17.95
2018-07-14T02:46:50.094Z,18.03
2018-07-14T02:47:50.119Z,17.97
2018-07-14T02:48:50.131Z,17.97
2018-07-14T02:49:49.898Z,17.99
2018-07-14T02:50:50.186Z,18.02
2018-07-14T02:51:50.204Z,18.03
2018-07-14T02:52:50.236Z,17.92
2018-07-14T02:53:50.249Z,18
2018-07-14T02:54:50.273Z,17.92
2018-07-14T02:55:50.313Z,17.95
2018-07-14T02:56:50.384Z,17.89
2018-07-14T02:58:05.005Z,17.95
2018-07-14T02:58:50.118Z,17.97
2018-07-14T03:00:50.421Z,17.95
2018-07-14T03:01:50.438Z,17.92
2018-07-14T03:03:05.126Z,17.95
2018-07-14T03:03:50.486Z,17.9
2018-07-14T03:05:05.170Z,18.02
2018-07-14T03:05:50.376Z,17.97
2018-07-14T03:06:50.553Z,17.96
2018-07-14T03:07:50.580Z,17.97
2018-07-14T03:08:50.606Z,17.9
2018-07-14T03:09:50.372Z,17.82
2018-07-14T03:10:50.648Z,17.93
2018-07-14T03:11:50.772Z,17.93
2018-07-14T03:12:50.517Z,17.89
2018-07-14T03:14:50.748Z,17.78
2018-07-14T03:15:50.765Z,17.81
2018-07-14T03:16:50.892Z,17.77
2018-07-14T03:17:50.885Z,17.77
2018-07-14T03:18:50.851Z,17.71
2018-07-14T03:19:50.859Z,17.79
2018-07-14T03:20:50.888Z,17.72
2018-07-14T03:21:50.907Z,17.78
2018-07-14T03:23:05.596Z,17.72
2018-07-14T03:23:50.956Z,17.87
2018-07-14T03:24:50.978Z,17.77
2018-07-14T03:25:51.004Z,17.74
2018-07-14T03:26:51.027Z,17.75
2018-07-14T03:27:51.054Z,17.81
2018-07-14T03:28:51.068Z,17.82
2018-07-14T03:30:05.756Z,17.77
2018-07-14T03:30:51.116Z,17.86
2018-07-14T03:31:51.149Z,17.82
2018-07-14T03:32:51.171Z,17.87
2018-07-14T03:33:50.929Z,17.92
2018-07-14T03:34:51.213Z,17.93
2018-07-14T03:35:50.977Z,17.99
2018-07-14T03:36:51.528Z,17.97
2018-07-14T03:38:05.945Z,17.92
2018-07-14T03:39:05.968Z,18.03
2018-07-14T03:40:05.990Z,18.03
2018-07-14T03:40:51.095Z,17.95
2018-07-14T03:41:51.401Z,17.99
2018-07-14T03:42:51.143Z,18
2018-07-14T03:43:51.423Z,17.97
2018-07-14T03:45:05.850Z,18.12
2018-07-14T03:45:51.478Z,17.99
2018-07-14T03:46:51.242Z,18.02
2018-07-14T03:48:06.183Z,18.05
2018-07-14T03:48:51.544Z,17.95
2018-07-14T03:49:51.564Z,17.95
2018-07-14T03:50:51.587Z,17.97
2018-07-14T03:51:51.611Z,18.08
2018-07-14T03:52:51.638Z,18.14
2018-07-14T03:53:51.658Z,18.07
2018-07-14T03:55:06.340Z,18.08
2018-07-14T03:55:51.753Z,18.1
2018-07-14T03:56:51.541Z,18.12
2018-07-14T03:57:51.766Z,18.11
2018-07-14T03:58:51.774Z,18.17
2018-07-14T03:59:51.796Z,18.12
2018-07-14T04:00:51.820Z,18.08
2018-07-14T04:01:51.846Z,18.05
2018-07-14T04:02:51.868Z,18
2018-07-14T04:04:51.682Z,17.96
2018-07-14T04:05:51.939Z,17.96
2018-07-14T04:06:51.705Z,17.93
2018-07-14T04:07:51.983Z,17.92
2018-07-14T04:08:52.009Z,17.89
2018-07-14T04:09:52.033Z,18.05
2018-07-14T04:10:52.057Z,17.92
2018-07-14T04:13:06.762Z,17.96
2018-07-14T04:13:52.127Z,18.03
2018-07-14T04:14:52.307Z,17.92
2018-07-14T04:15:52.172Z,18
2018-07-14T04:17:06.857Z,18.03
2018-07-14T04:17:51.961Z,17.93
2018-07-14T04:18:52.245Z,17.97
2018-07-14T04:20:52.287Z,17.97
2018-07-14T04:21:52.315Z,17.9
2018-07-14T04:22:52.337Z,18.03
2018-07-14T04:23:52.369Z,17.96
2018-07-14T04:24:52.393Z,17.99
2018-07-14T04:25:52.406Z,18
2018-07-14T04:26:52.431Z,18.05
2018-07-14T04:27:52.458Z,17.92
2018-07-14T04:28:52.478Z,18.08
2018-07-14T04:29:52.499Z,18.05
2018-07-14T04:31:52.685Z,18.26
2018-07-14T04:33:07.245Z,18.21
2018-07-14T04:33:52.594Z,18.27
2018-07-14T04:34:52.618Z,18.08
2018-07-14T04:35:52.647Z,18.17
2018-07-14T04:37:52.691Z,18.2
2018-07-14T04:38:52.456Z,18.27
2018-07-14T04:39:52.479Z,18.26
2018-07-14T04:41:07.422Z,18.29
2018-07-14T04:41:52.783Z,18.35
2018-07-14T04:42:52.805Z,18.35
2018-07-14T04:43:52.833Z,18.39
2018-07-14T04:44:52.860Z,18.36
2018-07-14T04:45:52.620Z,18.42
2018-07-14T04:46:52.388Z,18.35
2018-07-14T04:47:52.925Z,18.39
2018-07-14T04:49:07.612Z,18.42
2018-07-14T04:49:52.979Z,18.45
2018-07-14T04:50:52.739Z,18.63
2018-07-14T04:51:53.026Z,18.85
2018-07-14T04:52:53.046Z,18.91
2018-07-14T04:54:53.094Z,19.18
2018-07-14T04:55:53.117Z,19.36
2018-07-14T04:56:53.147Z,19.63
2018-07-14T04:57:52.911Z,19.74
2018-07-14T04:58:53.187Z,20.33
2018-07-14T04:59:53.213Z,20.79
2018-07-14T05:00:52.980Z,21.44
2018-07-14T05:01:53.003Z,21.99
2018-07-14T05:02:53.288Z,22.31
2018-07-14T05:03:53.308Z,22.68
2018-07-14T05:05:08.000Z,23.19
2018-07-14T05:05:53.364Z,23.68
2018-07-14T05:06:53.131Z,23.8
2018-07-14T05:07:53.414Z,24.27
2018-07-14T05:09:08.106Z,24.42
2018-07-14T05:09:53.471Z,24.34
2018-07-14T05:10:53.490Z,23.57
2018-07-14T05:11:53.515Z,23.97
2018-07-14T05:12:53.558Z,24.1
2018-07-14T05:13:53.317Z,24.6
2018-07-14T05:15:08.260Z,24.53
2018-07-14T05:15:53.632Z,24.61
2018-07-14T05:16:53.654Z,24.88
2018-07-14T05:17:53.681Z,25.21
2018-07-14T05:18:53.709Z,25.24
2018-07-14T05:20:08.144Z,25.33
2018-07-14T05:20:53.770Z,25.43
2018-07-14T05:21:53.535Z,25.65
2018-07-14T05:22:53.827Z,25.77
2018-07-14T05:23:53.855Z,25.4
2018-07-14T05:24:53.877Z,24.43
2018-07-14T05:25:53.911Z,24.39
2018-07-14T05:26:53.936Z,24.34
2018-07-14T05:27:53.964Z,24.24
2018-07-14T05:28:53.998Z,23.79
2018-07-14T05:29:54.022Z,23.88
2018-07-14T05:30:54.050Z,23.69
2018-07-14T05:31:54.082Z,23.6
2018-07-14T05:32:54.106Z,23.7
2018-07-14T05:33:54.139Z,23.69
2018-07-14T05:34:53.903Z,23.73
2018-07-14T05:35:54.189Z,23.95
2018-07-14T05:37:54.246Z,24.09
2018-07-14T05:38:54.275Z,24.37
2018-07-14T05:39:53.785Z,24.31
2018-07-14T05:40:54.328Z,24.37
2018-07-14T05:41:54.358Z,24.78
2018-07-14T05:42:54.396Z,25.61
2018-07-14T05:43:54.510Z,25.83
2018-07-14T05:44:54.442Z,25.43
2018-07-14T05:45:54.471Z,25.61
2018-07-14T05:46:54.498Z,25.77
2018-07-14T05:47:54.522Z,26.17
2018-07-14T05:48:54.556Z,26.39
2018-07-14T05:49:54.585Z,26.52
2018-07-14T05:50:54.360Z,27.07
2018-07-14T05:52:09.386Z,27.32
2018-07-14T05:52:54.414Z,27.54
2018-07-14T05:54:54.741Z,28.02
2018-07-14T05:55:54.773Z,28.09
2018-07-14T05:56:54.797Z,28.11
2018-07-14T05:57:54.568Z,28.66
2018-07-14T05:58:54.859Z,28.73
2018-07-14T05:59:54.892Z,29.06
2018-07-14T06:01:09.583Z,29.41
2018-07-14T06:01:54.956Z,29.3
2018-07-14T06:02:54.727Z,28.34
2018-07-14T06:03:55.014Z,28.25
2018-07-14T06:05:55.079Z,28.09
2018-07-14T06:06:55.112Z,28.49
2018-07-14T06:08:09.805Z,28.74
2018-07-14T06:09:54.949Z,29.12
2018-07-14T06:10:54.986Z,29.58
2018-07-14T06:11:55.281Z,30.15
2018-07-14T06:13:09.974Z,30.55
2018-07-14T06:13:55.338Z,30.77
2018-07-14T06:14:55.115Z,30.82
2018-07-14T06:15:55.406Z,30.94
2018-07-14T06:16:55.449Z,31.02
2018-07-14T06:17:55.476Z,30.86
2018-07-14T06:18:55.248Z,30.97
2018-07-14T06:19:55.539Z,30.7
2018-07-14T06:20:55.578Z,30.91
2018-07-14T06:21:55.346Z,30.94
2018-07-14T06:22:55.643Z,30.83
2018-07-14T06:24:10.346Z,31.02
2018-07-14T06:24:55.705Z,31.23
2018-07-14T06:25:55.493Z,31.26
2018-07-14T06:26:55.784Z,31.56
2018-07-14T06:27:55.810Z,31.34
2018-07-14T06:28:55.849Z,31.48
2018-07-14T06:29:55.877Z,31.84
2018-07-14T06:30:55.915Z,31.8
2018-07-14T06:31:56.075Z,31.91
2018-07-14T06:32:55.981Z,31.91
2018-07-14T06:34:10.424Z,31.17
2018-07-14T06:34:56.052Z,30.8
2018-07-14T06:35:55.831Z,30.61
2018-07-14T06:36:56.222Z,30.46
2018-07-14T06:37:56.155Z,30.22
2018-07-14T06:40:10.891Z,28.89
2018-07-14T06:40:56.264Z,28.19
2018-07-14T06:41:56.038Z,28.25
2018-07-14T06:42:56.328Z,27.74
2018-07-14T06:44:55.886Z,28.34
2018-07-14T06:45:56.432Z,28.9
2018-07-14T06:46:56.276Z,29.34
2018-07-14T06:48:11.165Z,29.48
2018-07-14T06:48:56.530Z,29.92
2018-07-14T06:49:56.567Z,29.83
2018-07-14T06:51:11.261Z,30.31
2018-07-14T06:51:56.635Z,30.76
2018-07-14T06:52:56.671Z,31.34
2018-07-14T06:53:56.705Z,31.46
2018-07-14T06:55:11.407Z,31.43
2018-07-14T06:55:56.509Z,31.19
2018-07-14T06:56:56.804Z,31.58
2018-07-14T06:57:56.834Z,31.89
2018-07-14T06:58:56.873Z,31.53
2018-07-14T06:59:56.906Z,31.89
2018-07-14T07:00:56.682Z,31.85
2018-07-14T07:01:56.976Z,32.55
2018-07-14T07:02:57.008Z,32.14
2018-07-14T07:04:11.707Z,31.86
2018-07-14T07:06:11.774Z,31.46
2018-07-14T07:07:11.810Z,31.28
2018-07-14T07:07:57.182Z,31.07
2018-07-14T07:09:56.992Z,32.01
2018-07-14T07:10:57.029Z,32.03
2018-07-14T07:11:57.323Z,32.15
2018-07-14T07:12:56.843Z,32.26
2018-07-14T07:13:57.590Z,31.75
2018-07-14T07:14:57.432Z,32.35
2018-07-14T07:15:57.463Z,32.5
2018-07-14T07:16:57.499Z,32.21
2018-07-14T07:17:57.532Z,32.55
2018-07-14T07:18:57.313Z,32.77
2018-07-14T07:19:57.610Z,32.23
2018-07-14T07:21:12.355Z,31.68
2018-07-14T07:21:57.422Z,31.91
2018-07-14T07:22:57.712Z,32.3
2018-07-14T07:23:57.753Z,32.96
2018-07-14T07:24:57.885Z,32.11
2018-07-14T07:25:57.822Z,32.06
2018-07-14T07:27:12.524Z,31.75
2018-07-14T07:27:57.634Z,31.93
2018-07-14T07:28:58.418Z,32.33
2018-07-14T07:29:57.968Z,32.89
2018-07-14T07:30:57.999Z,33.28
2018-07-14T07:31:58.036Z,33.09
2018-07-14T07:32:57.811Z,33.28
2018-07-14T07:33:58.482Z,32.85
2018-07-14T07:34:58.151Z,32.75
2018-07-14T07:35:58.183Z,32.82
2018-07-14T07:36:58.261Z,32.82
2018-07-14T07:37:58.256Z,32.75
2018-07-14T07:39:58.063Z,32.89
2018-07-14T07:40:58.098Z,33.31
2018-07-14T07:43:12.852Z,33.28
2018-07-14T07:43:58.210Z,33.01
2018-07-14T07:44:58.507Z,33.51
2018-07-14T07:45:58.542Z,33.44
2018-07-14T07:46:58.315Z,33.22
2018-07-14T07:47:58.613Z,33.59
2018-07-14T07:48:58.647Z,33.53
2018-07-14T07:49:58.680Z,33.45
2018-07-14T07:50:58.722Z,33.37
2018-07-14T07:51:58.756Z,32.88
2018-07-14T07:52:58.794Z,32.96
2018-07-14T07:53:58.824Z,33.22
2018-07-14T07:54:58.865Z,33.18
2018-07-14T07:55:58.639Z,33.23
2018-07-14T07:56:58.933Z,33.44
2018-07-14T07:57:58.975Z,33.21
2018-07-14T07:59:13.673Z,32.88
2018-07-14T07:59:58.788Z,32.18
2018-07-14T08:00:59.077Z,31.2
2018-07-14T08:01:58.859Z,31.56
2018-07-14T08:02:59.147Z,31.69
2018-07-14T08:03:58.929Z,31.21
2018-07-14T08:04:58.971Z,31.51
2018-07-14T08:05:59.257Z,31.93
2018-07-14T08:07:13.959Z,31.32
2018-07-14T08:07:59.327Z,31.53
2018-07-14T08:08:59.423Z,31.72
2018-07-14T08:09:59.401Z,31.28
2018-07-14T08:10:59.438Z,31.28
2018-07-14T08:11:59.474Z,30.79
2018-07-14T08:13:59.285Z,28.85
2018-07-14T08:15:14.244Z,28.36
2018-07-14T08:15:59.695Z,28.51
2018-07-14T08:16:59.652Z,29.15
2018-07-14T08:17:59.687Z,28.95
2018-07-14T08:19:14.396Z,28.37
2018-07-14T08:19:59.756Z,28.14
2018-07-14T08:20:59.792Z,28.83
2018-07-14T08:21:59.823Z,29
2018-07-14T08:23:00.431Z,28.58
2018-07-14T08:23:59.900Z,28.46
2018-07-14T08:24:59.935Z,28.73
2018-07-14T08:25:59.967Z,29.18
2018-07-14T08:27:14.409Z,28.76
2018-07-14T08:28:00.041Z,28.36
2018-07-14T08:28:59.812Z,28.22
2018-07-14T08:30:14.774Z,29.24
2018-07-14T08:31:00.141Z,29.8
2018-07-14T08:32:00.176Z,30.27
2018-07-14T08:33:00.223Z,30.31
2018-07-14T08:34:00.252Z,29.86
2018-07-14T08:35:00.280Z,30.05
2018-07-14T08:36:00.324Z,29.67
2018-07-14T08:37:00.094Z,29.27
2018-07-14T08:38:00.495Z,29.43
2018-07-14T08:39:15.084Z,29.57
2018-07-14T08:40:00.452Z,29.8
2018-07-14T08:41:00.490Z,30.29
2018-07-14T08:42:00.262Z,29.04
2018-07-14T08:43:00.560Z,29.06
2018-07-14T08:44:00.592Z,29.51
2018-07-14T08:45:00.623Z,29.65
2018-07-14T08:46:00.657Z,30.07
2018-07-14T08:48:00.724Z,30.07
2018-07-14T08:49:00.763Z,29.98
2018-07-14T08:50:00.803Z,30.16
2018-07-14T08:51:00.829Z,30.1
2018-07-14T08:52:00.867Z,30.16
2018-07-14T08:53:00.942Z,29.92
2018-07-14T08:54:15.595Z,29.49
2018-07-14T08:55:00.964Z,29.46
2018-07-14T08:56:01.000Z,29.08
2018-07-14T08:57:00.778Z,29.18
2018-07-14T08:58:01.067Z,29.86
2018-07-14T08:59:01.102Z,30.23
2018-07-14T09:00:01.136Z,30.55
2018-07-14T09:01:00.908Z,30.16
2018-07-14T09:02:15.864Z,29.6
2018-07-14T09:04:01.274Z,29.63
2018-07-14T09:05:01.308Z,29.61
2018-07-14T09:06:01.337Z,29.45
2018-07-14T09:07:01.375Z,29.97
2018-07-14T09:08:16.072Z,30.29
2018-07-14T09:09:16.104Z,30.2
2018-07-14T09:10:01.574Z,30.13
2018-07-14T09:11:01.508Z,30.38
2018-07-14T09:12:01.536Z,30.6
2018-07-14T09:13:01.571Z,30.35
2018-07-14T09:14:01.605Z,30.2
2018-07-14T09:15:01.641Z,30.16
2018-07-14T09:16:01.676Z,29.34
2018-07-14T09:17:01.704Z,29.37
2018-07-14T09:18:16.404Z,30.27
2018-07-14T09:19:01.771Z,30.11
2018-07-14T09:20:01.810Z,29.82
2018-07-14T09:21:01.859Z,29.04
2018-07-14T09:22:01.618Z,28.95
2018-07-14T09:23:01.653Z,29.28
2018-07-14T09:24:01.943Z,29.06
2018-07-14T09:25:01.977Z,28.95
2018-07-14T09:26:02.166Z,29.16
2018-07-14T09:27:16.704Z,29.63
2018-07-14T09:28:16.480Z,29.48
2018-07-14T09:29:02.113Z,29.86
2018-07-14T09:31:02.177Z,28.89
2018-07-14T09:32:02.206Z,28.56
2018-07-14T09:35:02.302Z,29.79
2018-07-14T09:36:02.348Z,29.82
2018-07-14T09:37:02.391Z,30.19
2018-07-14T09:38:02.291Z,29.73
2018-07-14T09:39:02.450Z,29.63
2018-07-14T09:40:02.473Z,29.97
2018-07-14T09:41:02.503Z,30.79
2018-07-14T09:42:02.278Z,30.42
2018-07-14T09:43:02.564Z,30.24
2018-07-14T09:44:02.766Z,30.24
2018-07-14T09:45:02.638Z,30.15
2018-07-14T09:46:02.665Z,29.82
2018-07-14T09:47:02.447Z,29.85
2018-07-14T09:48:02.729Z,29.57
2018-07-14T09:49:02.503Z,29.92
2018-07-14T09:50:17.199Z,29.79
2018-07-14T09:51:02.826Z,29.73
2018-07-14T09:52:02.864Z,29.57
2018-07-14T09:55:02.697Z,28.98
2018-07-14T09:56:02.986Z,29.04
2018-07-14T09:57:03.020Z,29.26
2018-07-14T09:58:03.105Z,28.88
2018-07-14T09:59:03.136Z,29.34
2018-07-14T10:00:17.776Z,29.7
2018-07-14T10:01:03.148Z,29.48
2018-07-14T10:02:03.183Z,29.43
2018-07-14T10:04:03.253Z,29.89
2018-07-14T10:05:17.944Z,29.82
2018-07-14T10:06:03.162Z,29.16
2018-07-14T10:07:03.344Z,28.71
2018-07-14T10:08:03.379Z,28.49
2018-07-14T10:09:03.148Z,28.74
2018-07-14T10:10:03.262Z,29.26
2018-07-14T10:12:03.504Z,28.62
2018-07-14T10:13:03.282Z,29.16
2018-07-14T10:14:03.560Z,29.34
2018-07-14T10:15:03.857Z,29.48
2018-07-14T10:16:03.625Z,29.42
2018-07-14T10:17:03.654Z,29.28
2018-07-14T10:18:03.427Z,28.66
2018-07-14T10:19:03.457Z,28.76
2018-07-14T10:20:03.519Z,28.81
2018-07-14T10:21:03.782Z,29.09
2018-07-14T10:22:03.805Z,29.41
2018-07-14T10:23:03.845Z,29.73
2018-07-14T10:24:03.613Z,29.83
2018-07-14T10:25:04.163Z,29.73
2018-07-14T10:26:03.836Z,28.95
2018-07-14T10:27:03.714Z,29.05
2018-07-14T10:28:03.583Z,29.21
2018-07-14T10:29:04.242Z,29.41
2018-07-14T10:30:03.798Z,29.57
2018-07-14T10:31:04.086Z,29.3
2018-07-14T10:32:03.862Z,29.33
2018-07-14T10:33:03.902Z,28.83
2018-07-14T10:34:04.500Z,28.9
2018-07-14T10:35:03.695Z,28.95
2018-07-14T10:36:04.242Z,28.18
2018-07-14T10:37:18.934Z,27.51
2018-07-14T10:38:04.299Z,27.6
2018-07-14T10:39:04.081Z,26.99
2018-07-14T10:40:04.103Z,27.02
2018-07-14T10:41:04.391Z,26.76
2018-07-14T10:42:04.240Z,26.58
2018-07-14T10:43:04.196Z,26.54
2018-07-14T10:44:04.491Z,26.29
2018-07-14T10:45:04.253Z,26.01
2018-07-14T10:46:04.548Z,26.09
2018-07-14T10:47:19.236Z,26.01
2018-07-14T10:48:04.603Z,25.87
2018-07-14T10:49:04.378Z,25.92
2018-07-14T10:50:04.411Z,25.98
2018-07-14T10:51:04.437Z,26.23
2018-07-14T10:52:04.465Z,26.39
2018-07-14T10:53:19.432Z,26.5
2018-07-14T10:54:04.794Z,26.33
2018-07-14T10:55:19.516Z,26.21
2018-07-14T10:56:04.842Z,26.09
2018-07-14T10:57:04.877Z,26.43
2018-07-14T10:58:04.733Z,26.54
2018-07-14T10:59:04.680Z,26.58
2018-07-14T11:00:04.966Z,26.47
2018-07-14T11:01:04.732Z,26.3
2018-07-14T11:02:19.682Z,25.7
2018-07-14T11:03:05.057Z,25.45
2018-07-14T11:04:19.798Z,25.32
2018-07-14T11:05:05.257Z,25.6
2018-07-14T11:06:04.880Z,25.47
2018-07-14T11:08:04.941Z,25.69
2018-07-14T11:09:19.886Z,25.61
2018-07-14T11:10:05.003Z,25.64
2018-07-14T11:11:05.026Z,25.39
2018-07-14T11:12:19.980Z,25.5
2018-07-14T11:13:05.082Z,25.39
2018-07-14T11:14:05.110Z,25.1
2018-07-14T11:15:05.402Z,24.96
2018-07-14T11:16:05.169Z,25.17
2018-07-14T11:17:05.461Z,25.05
2018-07-14T11:18:05.484Z,25.08
2018-07-14T11:19:19.916Z,25.25
2018-07-14T11:20:05.285Z,25.27
2018-07-14T11:21:05.568Z,25.3
2018-07-14T11:22:05.597Z,25.57
2018-07-14T11:23:05.627Z,25.6
2018-07-14T11:24:05.655Z,25.6
2018-07-14T11:25:20.343Z,25.79
2018-07-14T11:26:05.451Z,26.05
2018-07-14T11:27:05.742Z,26.05
2018-07-14T11:28:05.766Z,25.9
2018-07-14T11:29:05.798Z,25.57
2018-07-14T11:30:05.831Z,25.72
2018-07-14T11:31:20.517Z,26.17
2018-07-14T11:32:05.881Z,26.35
2018-07-14T11:33:05.651Z,26.54
2018-07-14T11:35:05.967Z,26.55
2018-07-14T11:36:05.736Z,26.39
2018-07-14T11:37:06.030Z,26.45
2018-07-14T11:38:06.051Z,26.29
2018-07-14T11:39:05.820Z,25.77
2018-07-14T11:40:20.770Z,25.82
2018-07-14T11:42:06.268Z,25.9
2018-07-14T11:43:05.935Z,26.15
2018-07-14T11:44:05.963Z,26.23
2018-07-14T11:45:06.293Z,26.44
2018-07-14T11:46:05.764Z,26.69
2018-07-14T11:47:06.049Z,26.85
2018-07-14T11:48:06.076Z,26.95
2018-07-14T11:49:21.020Z,26.44
2018-07-14T11:50:20.790Z,26.3
2018-07-14T11:51:06.424Z,26.45
2018-07-14T11:52:05.929Z,26.45
2018-07-14T11:54:06.251Z,26.44
2018-07-14T11:55:06.267Z,26.44
2018-07-14T11:56:06.295Z,26.45
2018-07-14T11:57:06.586Z,26.43
2018-07-14T11:58:06.612Z,26.69
2018-07-14T11:59:06.380Z,26.82
2018-07-14T12:00:06.149Z,26.81
2018-07-14T12:01:06.700Z,26.6
2018-07-14T12:02:06.572Z,26.47
2018-07-14T12:03:06.754Z,26.39
2018-07-14T12:04:06.521Z,26.2
2018-07-14T12:05:06.552Z,26.17
2018-07-14T12:06:06.838Z,26.32
2018-07-14T12:07:06.601Z,26.3
2018-07-14T12:08:06.629Z,26.3
2018-07-14T12:09:06.920Z,26.44
2018-07-14T12:10:06.692Z,26.47
2018-07-14T12:11:06.973Z,26.66
2018-07-14T12:13:07.032Z,27.12
2018-07-14T12:14:06.798Z,27.06
2018-07-14T12:15:06.826Z,27.03
2018-07-14T12:16:06.854Z,26.95
2018-07-14T12:17:06.624Z,27.09
2018-07-14T12:18:21.832Z,27
2018-07-14T12:19:21.874Z,27.04
2018-07-14T12:20:07.225Z,27.17
2018-07-14T12:21:06.996Z,27.09
2018-07-14T12:22:06.861Z,26.99
2018-07-14T12:23:07.320Z,26.92
2018-07-14T12:24:07.333Z,26.67
2018-07-14T12:25:07.114Z,26.44
2018-07-14T12:26:07.132Z,26.44
2018-07-14T12:27:07.419Z,26.57
2018-07-14T12:28:22.210Z,26.57
2018-07-14T12:29:07.216Z,26.44
2018-07-14T12:30:07.257Z,26.35
2018-07-14T12:32:07.559Z,25.69
2018-07-14T12:33:07.584Z,25.69
2018-07-14T12:34:07.362Z,25.92
2018-07-14T12:35:07.639Z,26.15
2018-07-14T12:36:07.670Z,26.02
2018-07-14T12:37:07.442Z,25.83
2018-07-14T12:38:07.469Z,25.9
2018-07-14T12:39:07.493Z,25.95
2018-07-14T12:40:07.521Z,26.05
2018-07-14T12:41:07.806Z,26.17
2018-07-14T12:42:07.578Z,26.01
2018-07-14T12:43:07.863Z,26.32
2018-07-14T12:44:22.551Z,26.36
2018-07-14T12:45:07.401Z,26.33
2018-07-14T12:46:07.686Z,26.05
2018-07-14T12:48:22.667Z,26.06
2018-07-14T12:49:08.027Z,25.91
2018-07-14T12:50:08.058Z,25.73
2018-07-14T12:51:08.085Z,25.52
2018-07-14T12:52:08.120Z,25.57
2018-07-14T12:53:08.142Z,25.73
2018-07-14T12:54:08.167Z,25.72
2018-07-14T12:55:22.597Z,25.65
2018-07-14T12:56:08.264Z,25.76
2018-07-14T12:57:08.259Z,25.73
2018-07-14T12:58:08.018Z,25.94
2018-07-14T12:59:08.304Z,25.8
2018-07-14T13:00:22.994Z,25.64
2018-07-14T13:01:07.847Z,25.5
2018-07-14T13:02:08.130Z,25.47
2018-07-14T13:04:08.190Z,25.75
2018-07-14T13:05:08.215Z,25.54
2018-07-14T13:06:08.493Z,25.46
2018-07-14T13:07:08.525Z,25.25
2018-07-14T13:08:08.552Z,25.36
2018-07-14T13:09:08.578Z,25.38
2018-07-14T13:10:08.344Z,25.57
2018-07-14T13:11:08.676Z,25.57
2018-07-14T13:12:08.657Z,25.75
2018-07-14T13:13:08.796Z,25.92
2018-07-14T13:14:08.459Z,25.98
2018-07-14T13:15:23.405Z,26.02
2018-07-14T13:16:08.512Z,26.07
2018-07-14T13:17:08.925Z,25.77
2018-07-14T13:18:08.833Z,25.65
2018-07-14T13:19:08.862Z,25.54
2018-07-14T13:20:08.620Z,25.39
2018-07-14T13:22:08.683Z,25.6
2018-07-14T13:23:08.963Z,25.79
2018-07-14T13:24:08.991Z,25.75
2018-07-14T13:25:08.757Z,25.85
2018-07-14T13:26:23.445Z,25.82
2018-07-14T13:27:09.068Z,25.85
2018-07-14T13:28:09.096Z,25.39
2018-07-14T13:29:09.122Z,25.35
2018-07-14T13:30:09.445Z,25.3
2018-07-14T13:31:09.186Z,25.08
2018-07-14T13:32:09.204Z,25.21
2018-07-14T13:33:09.240Z,25.38
2018-07-14T13:34:09.264Z,25.42
2018-07-14T13:35:09.289Z,25.45
2018-07-14T13:36:09.059Z,25.57
2018-07-14T13:37:09.340Z,25.46
2018-07-14T13:38:09.368Z,25.39
2018-07-14T13:39:09.703Z,25.45
2018-07-14T13:40:09.163Z,25.4
2018-07-14T13:41:09.486Z,25.35